createdAt,value
2018-07-07T00:01:46.244Z,98653.66
2018-07-07T00:04:15.332Z,98655.34
2018-07-07T00:06:44.248Z,98651.25
2018-07-07T00:09:13.082Z,98659.47
2018-07-07T00:11:41.747Z,98660.11
2018-07-07T00:14:10.473Z,98659.89
2018-07-07T00:16:39.472Z,98661.02
2018-07-07T00:19:08.082Z,98659.71
2018-07-07T00:21:37.029Z,98659.87
2018-07-07T00:24:06.147Z,98655.79
2018-07-07T00:26:34.821Z,98655.56
2018-07-07T00:29:03.686Z,98649.12
2018-07-07T00:31:32.340Z,98652.99
2018-07-07T00:34:01.194Z,98651.45
2018-07-07T00:36:30.177Z,98656.99
2018-07-07T00:38:58.861Z,98652.78
2018-07-07T00:41:27.636Z,98647.08
2018-07-07T00:43:56.208Z,98656.59
2018-07-07T00:46:24.877Z,98651.78
2018-07-07T00:48:53.496Z,98654.28
2018-07-07T00:51:22.158Z,98650.52
2018-07-07T00:53:51.059Z,98661.44
2018-07-07T00:56:19.913Z,98655.56
2018-07-07T00:58:48.483Z,98661.63
2018-07-07T01:01:17.118Z,98661.13
2018-07-07T01:03:45.972Z,98662.89
2018-07-07T01:06:28.713Z,98657.81
2018-07-07T01:08:57.759Z,98661.93
2018-07-07T01:11:26.451Z,98665.00
2018-07-07T01:13:55.516Z,98661.25
2018-07-07T01:16:24.091Z,98667.81
2018-07-07T01:18:52.713Z,98671.16
2018-07-07T01:21:21.281Z,98670.42
2018-07-07T01:23:50.066Z,98667.22
2018-07-07T01:26:18.729Z,98669.67
2018-07-07T01:28:47.492Z,98677.81
2018-07-07T01:31:16.207Z,98670.80
2018-07-07T01:33:45.647Z,98670.02
2018-07-07T01:36:14.602Z,98666.56
2018-07-07T01:38:44.073Z,98670.96
2018-07-07T01:41:12.772Z,98668.55
2018-07-07T01:43:41.393Z,98672.04
2018-07-07T01:46:10.108Z,98675.30
2018-07-07T01:48:38.831Z,98672.39
2018-07-07T01:51:07.308Z,98665.38
2018-07-07T01:53:36.019Z,98666.31
2018-07-07T01:56:04.576Z,98667.44
2018-07-07T01:58:33.236Z,98673.95
2018-07-07T02:01:02.168Z,98668.48
2018-07-07T02:03:30.882Z,98666.12
2018-07-07T02:05:59.451Z,98665.61
2018-07-07T02:08:28.271Z,98663.48
2018-07-07T02:10:57.973Z,98667.91
2018-07-07T02:13:26.725Z,98674.65
2018-07-07T02:15:55.404Z,98670.66
2018-07-07T02:18:23.923Z,98666.59
2018-07-07T02:20:52.604Z,98670.19
2018-07-07T02:23:21.137Z,98671.89
2018-07-07T02:25:50.391Z,98669.22
2018-07-07T02:28:19.088Z,98676.66
2018-07-07T02:30:47.742Z,98671.73
2018-07-07T02:33:16.457Z,98676.38
2018-07-07T02:35:45.223Z,98675.87
2018-07-07T02:38:14.133Z,98681.30
2018-07-07T02:40:42.748Z,98681.95
2018-07-07T02:43:11.542Z,98683.37
2018-07-07T02:45:40.251Z,98681.55
2018-07-07T02:48:09.564Z,98685.38
2018-07-07T02:50:39.294Z,98685.14
2018-07-07T02:53:08.608Z,98689.22
2018-07-07T02:55:37.275Z,98685.75
2018-07-07T02:58:05.968Z,98686.84
2018-07-07T03:00:34.710Z,98692.81
2018-07-07T03:03:03.409Z,98688.16
2018-07-07T03:05:32.986Z,98695.75
2018-07-07T03:08:02.064Z,98694.95
2018-07-07T03:10:30.789Z,98699.63
2018-07-07T03:12:59.308Z,98704.03
2018-07-07T03:15:28.594Z,98696.20
2018-07-07T03:17:57.395Z,98710.27
2018-07-07T03:20:26.241Z,98711.69
2018-07-07T03:22:54.908Z,98706.32
2018-07-07T03:25:23.669Z,98713.31
2018-07-07T03:27:53.015Z,98715.51
2018-07-07T03:30:22.189Z,98709.06
2018-07-07T03:32:51.068Z,98714.25
2018-07-07T03:35:19.751Z,98712.89
2018-07-07T03:37:48.603Z,98718.05
2018-07-07T03:40:17.265Z,98716.11
2018-07-07T03:42:46.608Z,98715.36
2018-07-07T03:45:15.510Z,98718.59
2018-07-07T03:47:44.227Z,98711.54
2018-07-07T03:50:13.040Z,98719.06
2018-07-07T03:52:42.584Z,98719.81
2018-07-07T03:55:11.191Z,98720.87
2018-07-07T03:57:39.845Z,98723.04
2018-07-07T04:00:09.080Z,98715.20
2018-07-07T04:02:37.733Z,98723.86
2018-07-07T04:05:06.542Z,98723.48
2018-07-07T04:07:35.625Z,98727.73
2018-07-07T04:10:04.369Z,98723.29
2018-07-07T04:12:33.115Z,98718.06
2018-07-07T04:15:02.496Z,98721.73
2018-07-07T04:17:31.231Z,98726.47
2018-07-07T04:19:59.949Z,98722.56
2018-07-07T04:22:28.526Z,98723.89
2018-07-07T04:24:57.475Z,98719.98
2018-07-07T04:27:26.724Z,98720.61
2018-07-07T04:29:55.408Z,98717.08
2018-07-07T04:32:24.016Z,98716.20
2018-07-07T04:34:52.815Z,98725.20
2018-07-07T04:37:21.385Z,98727.39
2018-07-07T04:39:50.114Z,98721.28
2018-07-07T04:42:18.883Z,98726.31
2018-07-07T04:44:48.389Z,98721.69
2018-07-07T04:47:17.621Z,98716.80
2018-07-07T04:49:46.163Z,98723.72
2018-07-07T04:52:14.811Z,98724.64
2018-07-07T04:54:43.503Z,98724.92
2018-07-07T04:57:12.250Z,98718.98
2018-07-07T04:59:40.982Z,98721.77
2018-07-07T05:02:09.659Z,98720.46
2018-07-07T05:04:38.491Z,98717.85
2018-07-07T05:07:07.333Z,98723.29
2018-07-07T05:09:36.007Z,98719.33
2018-07-07T05:12:05.671Z,98720.91
2018-07-07T05:14:34.220Z,98725.48
2018-07-07T05:17:03.619Z,98725.94
2018-07-07T05:19:32.353Z,98732.62
2018-07-07T05:22:01.065Z,98730.48
2018-07-07T05:24:29.684Z,98724.94
2018-07-07T05:26:59.095Z,98726.73
2018-07-07T05:29:27.653Z,98731.35
2018-07-07T05:31:56.469Z,98733.98
2018-07-07T05:34:25.106Z,98727.66
2018-07-07T05:36:53.725Z,98734.27
2018-07-07T05:39:22.443Z,98730.48
2018-07-07T05:41:51.975Z,98732.59
2018-07-07T05:44:20.655Z,98724.46
2018-07-07T05:46:49.360Z,98726.75
2018-07-07T05:49:17.999Z,98724.55
2018-07-07T05:51:46.708Z,98723.58
2018-07-07T05:54:15.428Z,98722.94
2018-07-07T05:56:44.080Z,98721.02
2018-07-07T05:59:13.401Z,98726.83
2018-07-07T06:01:42.089Z,98728.68
2018-07-07T06:04:10.705Z,98729.16
2018-07-07T06:06:39.486Z,98727.72
2018-07-07T06:09:08.828Z,98733.89
2018-07-07T06:11:38.275Z,98730.87
2018-07-07T06:14:06.892Z,98731.93
2018-07-07T06:16:35.549Z,98730.12
2018-07-07T06:19:04.345Z,98732.06
2018-07-07T06:21:33.177Z,98734.65
2018-07-07T06:24:02.490Z,98728.99
2018-07-07T06:26:31.646Z,98726.91
2018-07-07T06:29:00.515Z,98726.84
2018-07-07T06:31:29.773Z,98732.24
2018-07-07T06:33:58.495Z,98736.55
2018-07-07T06:36:27.173Z,98739.44
2018-07-07T06:38:56.701Z,98739.31
2018-07-07T06:41:26.161Z,98745.69
2018-07-07T06:43:54.790Z,98747.18
2018-07-07T06:46:23.462Z,98742.23
2018-07-07T06:48:52.344Z,98745.89
2018-07-07T06:51:21.025Z,98741.91
2018-07-07T06:53:49.845Z,98744.89
2018-07-07T06:56:18.645Z,98740.35
2018-07-07T06:58:47.272Z,98749.19
2018-07-07T07:01:16.879Z,98740.42
2018-07-07T07:03:46.153Z,98739.36
2018-07-07T07:06:15.000Z,98735.34
2018-07-07T07:08:43.690Z,98742.30
2018-07-07T07:11:12.893Z,98735.16
2018-07-07T07:13:41.571Z,98728.41
2018-07-07T07:16:10.381Z,98738.75
2018-07-07T07:18:39.055Z,98743.05
2018-07-07T07:21:08.094Z,98740.16
2018-07-07T07:23:36.867Z,98737.13
2018-07-07T07:26:05.854Z,98742.20
2018-07-07T07:28:34.544Z,98741.17
2018-07-07T07:31:03.622Z,98751.15
2018-07-07T07:33:32.435Z,98740.58
2018-07-07T07:36:05.811Z,98743.22
2018-07-07T07:38:34.667Z,98739.14
2018-07-07T07:41:03.592Z,98735.58
2018-07-07T07:43:32.206Z,98734.45
2018-07-07T07:46:01.040Z,98728.67
2018-07-07T07:48:30.192Z,98728.19
2018-07-07T07:50:58.924Z,98730.31
2018-07-07T07:53:27.599Z,98731.36
2018-07-07T07:55:56.488Z,98726.67
2018-07-07T07:58:25.139Z,98722.73
2018-07-07T08:00:54.265Z,98729.09
2018-07-07T08:03:23.146Z,98722.22
2018-07-07T08:05:52.805Z,98721.73
2018-07-07T08:08:23.015Z,98725.03
2018-07-07T08:10:51.745Z,98721.86
2018-07-07T08:13:21.434Z,98720.69
2018-07-07T08:15:50.586Z,98723.93
2018-07-07T08:18:19.593Z,98723.65
2018-07-07T08:20:48.244Z,98720.20
2018-07-07T08:23:16.879Z,98719.66
2018-07-07T08:25:45.492Z,98718.08
2018-07-07T08:28:14.559Z,98715.13
2018-07-07T08:30:43.606Z,98716.94
2018-07-07T08:33:13.101Z,98715.38
2018-07-07T08:35:41.940Z,98710.39
2018-07-07T08:38:15.200Z,98712.40
2018-07-07T08:40:43.945Z,98716.27
2018-07-07T08:43:15.897Z,98711.22
2018-07-07T08:45:45.757Z,98715.30
2018-07-07T08:48:14.910Z,98716.81
2018-07-07T08:50:44.647Z,98714.02
2018-07-07T08:53:13.960Z,98715.09
2018-07-07T08:55:42.637Z,98714.20
2018-07-07T08:58:11.426Z,98699.11
2018-07-07T09:00:40.052Z,98712.30
2018-07-07T09:03:08.746Z,98709.80
2018-07-07T09:05:37.327Z,98704.34
2018-07-07T09:08:06.167Z,98708.96
2018-07-07T09:10:35.606Z,98708.55
2018-07-07T09:13:04.594Z,98703.55
2018-07-07T09:15:33.860Z,98707.05
2018-07-07T09:18:02.620Z,98700.61
2018-07-07T09:20:31.229Z,98697.05
2018-07-07T09:23:00.217Z,98691.76
2018-07-07T09:25:28.916Z,98690.66
2018-07-07T09:27:57.824Z,98690.09
2018-07-07T09:30:26.559Z,98688.75
2018-07-07T09:32:55.477Z,98687.27
2018-07-07T09:35:25.836Z,98684.43
2018-07-07T09:38:33.265Z,98680.92
2018-07-07T09:41:03.222Z,98681.92
2018-07-07T09:43:32.416Z,98685.75
2018-07-07T09:46:01.275Z,98682.22
2018-07-07T09:48:30.141Z,98678.12
2018-07-07T09:50:59.260Z,98681.81
2018-07-07T09:53:28.243Z,98676.98
2018-07-07T09:55:57.271Z,98676.13
2018-07-07T09:58:26.912Z,98672.17
2018-07-07T10:00:55.995Z,98667.97
2018-07-07T10:03:24.846Z,98674.68
2018-07-07T10:05:53.752Z,98678.66
2018-07-07T10:08:22.721Z,98679.34
2018-07-07T10:10:51.482Z,98675.47
2018-07-07T10:13:21.195Z,98674.52
2018-07-07T10:15:50.370Z,98688.88
2018-07-07T10:18:19.396Z,98682.86
2018-07-07T10:20:48.898Z,98682.66
2018-07-07T10:23:17.595Z,98680.73
2018-07-07T10:25:47.179Z,98677.82
2018-07-07T10:28:15.926Z,98678.16
2018-07-07T10:30:45.089Z,98684.36
2018-07-07T10:33:14.091Z,98687.73
2018-07-07T10:35:42.857Z,98687.91
2018-07-07T10:38:12.618Z,98678.56
2018-07-07T10:40:41.807Z,98682.51
2018-07-07T10:43:11.005Z,98678.65
2018-07-07T10:45:40.182Z,98674.20
2018-07-07T10:48:09.410Z,98675.33
2018-07-07T10:50:38.401Z,98671.86
2018-07-07T10:53:07.674Z,98672.97
2018-07-07T10:55:36.547Z,98669.48
2018-07-07T10:58:05.402Z,98665.02
2018-07-07T11:00:34.320Z,98666.26
2018-07-07T11:03:02.948Z,98658.02
2018-07-07T11:05:31.812Z,98652.82
2018-07-07T11:08:00.597Z,98649.38
2018-07-07T11:10:30.526Z,98644.66
2018-07-07T11:12:59.128Z,98655.78
2018-07-07T11:15:28.786Z,98651.59
2018-07-07T11:17:57.546Z,98645.21
2018-07-07T11:20:27.159Z,98639.16
2018-07-07T11:22:57.409Z,98643.08
2018-07-07T11:25:26.903Z,98641.41
2018-07-07T11:27:55.561Z,98648.44
2018-07-07T11:30:24.608Z,98640.22
2018-07-07T11:32:53.615Z,98646.95
2018-07-07T11:35:22.651Z,98649.34
2018-07-07T11:37:52.647Z,98645.98
2018-07-07T11:40:21.976Z,98644.19
2018-07-07T11:42:50.808Z,98646.20
2018-07-07T11:45:19.652Z,98636.92
2018-07-07T11:47:48.693Z,98637.30
2018-07-07T11:50:18.672Z,98635.09
2018-07-07T11:52:47.441Z,98633.33
2018-07-07T11:55:16.107Z,98629.22
2018-07-07T11:57:45.029Z,98635.00
2018-07-07T12:00:14.127Z,98627.34
2018-07-07T12:02:43.135Z,98627.50
2018-07-07T12:05:12.771Z,98625.55
2018-07-07T12:07:43.477Z,98625.37
2018-07-07T12:10:12.558Z,98622.31
2018-07-07T12:12:41.390Z,98624.35
2018-07-07T12:15:10.986Z,98621.77
2018-07-07T12:17:40.329Z,98611.19
2018-07-07T12:20:09.281Z,98617.53
2018-07-07T12:22:38.455Z,98612.48
2018-07-07T12:25:07.831Z,98608.35
2018-07-07T12:27:36.746Z,98599.95
2018-07-07T12:30:06.643Z,98604.29
2018-07-07T12:32:35.477Z,98596.34
2018-07-07T12:35:04.370Z,98591.14
2018-07-07T12:37:33.251Z,98589.48
2018-07-07T12:40:02.305Z,98595.50
2018-07-07T12:42:31.198Z,98590.02
2018-07-07T12:45:00.107Z,98593.44
2018-07-07T12:47:28.882Z,98596.41
2018-07-07T12:49:58.060Z,98589.88
2018-07-07T12:52:27.020Z,98592.31
2018-07-07T12:54:56.468Z,98591.50
2018-07-07T12:57:25.327Z,98599.92
2018-07-07T12:59:54.268Z,98592.00
2018-07-07T13:02:23.096Z,98588.20
2018-07-07T13:04:51.767Z,98588.01
2018-07-07T13:07:20.794Z,98586.23
2018-07-07T13:09:49.616Z,98587.82
2018-07-07T13:12:18.318Z,98590.41
2018-07-07T13:14:47.023Z,98583.83
2018-07-07T13:17:15.932Z,98588.95
2018-07-07T13:19:44.606Z,98592.27
2018-07-07T13:22:13.594Z,98587.06
2018-07-07T13:24:42.458Z,98586.77
2018-07-07T13:27:11.234Z,98576.67
2018-07-07T13:29:40.207Z,98575.37
2018-07-07T13:32:10.007Z,98582.17
2018-07-07T13:34:39.377Z,98576.89
2018-07-07T13:37:08.513Z,98579.09
2018-07-07T13:39:39.711Z,98580.11
2018-07-07T13:42:10.119Z,98577.31
2018-07-07T13:44:39.077Z,98574.52
2018-07-07T13:47:08.549Z,98571.56
2018-07-07T13:49:38.567Z,98565.39
2018-07-07T13:52:07.683Z,98570.15
2018-07-07T13:54:36.437Z,98563.22
2018-07-07T13:57:05.569Z,98564.20
2018-07-07T13:59:34.357Z,98564.02
2018-07-07T14:02:03.819Z,98559.84
2018-07-07T14:04:32.452Z,98561.42
2018-07-07T14:07:01.041Z,98567.78
2018-07-07T14:09:29.791Z,98570.78
2018-07-07T14:11:58.534Z,98561.02
2018-07-07T14:14:27.783Z,98553.69
2018-07-07T14:16:56.648Z,98548.50
2018-07-07T14:19:25.392Z,98558.25
2018-07-07T14:21:54.372Z,98555.48
2018-07-07T14:24:22.953Z,98552.67
2018-07-07T14:26:51.869Z,98545.16
2018-07-07T14:29:20.513Z,98547.94
2018-07-07T14:31:49.497Z,98542.58
2018-07-07T14:34:18.200Z,98543.30
2018-07-07T14:36:47.024Z,98542.16
2018-07-07T14:39:15.758Z,98539.98
2018-07-07T14:41:44.418Z,98546.16
2018-07-07T14:44:13.583Z,98547.13
2018-07-07T14:46:42.379Z,98550.45
2018-07-07T14:49:11.538Z,98551.03
2018-07-07T14:51:40.382Z,98550.42
2018-07-07T14:54:09.503Z,98548.05
2018-07-07T14:56:38.260Z,98547.81
2018-07-07T14:59:07.142Z,98540.08
2018-07-07T15:01:35.937Z,98546.83
2018-07-07T15:04:05.262Z,98545.02
2018-07-07T15:06:33.964Z,98545.81
2018-07-07T15:09:04.933Z,98545.78
2018-07-07T15:11:33.729Z,98546.16
2018-07-07T15:14:02.453Z,98543.38
2018-07-07T15:16:31.307Z,98539.63
2018-07-07T15:19:00.125Z,98541.23
2018-07-07T15:21:29.018Z,98539.06
2018-07-07T15:23:57.760Z,98539.89
2018-07-07T15:26:26.522Z,98537.31
2018-07-07T15:28:55.621Z,98541.25
2018-07-07T15:31:24.853Z,98529.38
2018-07-07T15:33:53.992Z,98527.81
2018-07-07T15:36:22.827Z,98522.63
2018-07-07T15:38:51.612Z,98523.22
2018-07-07T15:41:20.332Z,98515.67
2018-07-07T15:43:49.232Z,98519.22
2018-07-07T15:46:18.283Z,98515.86
2018-07-07T15:48:47.039Z,98516.84
2018-07-07T15:51:15.927Z,98514.66
2018-07-07T15:53:45.392Z,98516.48
2018-07-07T15:56:14.218Z,98512.50
2018-07-07T15:58:42.980Z,98507.94
2018-07-07T16:01:11.660Z,98506.55
2018-07-07T16:03:40.898Z,98506.34
2018-07-07T16:06:10.038Z,98504.37
2018-07-07T16:08:38.849Z,98500.20
2018-07-07T16:11:08.263Z,98496.62
2018-07-07T16:13:36.899Z,98497.63
2018-07-07T16:16:05.797Z,98498.39
2018-07-07T16:18:34.552Z,98494.45
2018-07-07T16:21:03.349Z,98497.00
2018-07-07T16:23:32.321Z,98494.97
2018-07-07T16:26:01.980Z,98489.83
2018-07-07T16:28:31.206Z,98484.66
2018-07-07T16:31:00.404Z,98480.86
2018-07-07T16:33:30.183Z,98481.05
2018-07-07T16:35:59.363Z,98488.20
2018-07-07T16:38:28.618Z,98486.44
2018-07-07T16:40:57.944Z,98482.09
2018-07-07T16:43:27.053Z,98484.90
2018-07-07T16:45:55.919Z,98488.69
2018-07-07T16:48:24.562Z,98484.47
2018-07-07T16:50:53.504Z,98477.35
2018-07-07T16:53:22.383Z,98478.31
2018-07-07T16:55:51.256Z,98479.11
2018-07-07T16:58:20.977Z,98476.12
2018-07-07T17:00:49.950Z,98474.70
2018-07-07T17:03:19.004Z,98475.06
2018-07-07T17:05:48.504Z,98473.09
2018-07-07T17:08:17.639Z,98473.64
2018-07-07T17:10:46.784Z,98476.02
2018-07-07T17:13:16.344Z,98480.20
2018-07-07T17:15:45.778Z,98482.68
2018-07-07T17:18:15.231Z,98477.41
2018-07-07T17:20:43.945Z,98480.42
2018-07-07T17:23:12.895Z,98475.67
2018-07-07T17:25:41.766Z,98475.88
2018-07-07T17:28:10.625Z,98476.67
2018-07-07T17:30:39.887Z,98475.48
2018-07-07T17:33:09.031Z,98479.47
2018-07-07T17:35:37.924Z,98473.73
2018-07-07T17:38:06.952Z,98480.69
2018-07-07T17:40:36.768Z,98483.87
2018-07-07T17:43:05.818Z,98482.64
2018-07-07T17:45:34.488Z,98481.48
2018-07-07T17:48:03.278Z,98486.23
2018-07-07T17:50:32.437Z,98478.70
2018-07-07T17:53:01.866Z,98483.42
2018-07-07T17:55:30.849Z,98475.52
2018-07-07T17:58:00.050Z,98474.95
2018-07-07T18:00:29.030Z,98476.13
2018-07-07T18:02:58.071Z,98480.11
2018-07-07T18:05:26.920Z,98473.36
2018-07-07T18:07:56.175Z,98473.74
2018-07-07T18:10:25.184Z,98478.31
2018-07-07T18:12:54.080Z,98477.67
2018-07-07T18:15:22.930Z,98476.87
2018-07-07T18:17:51.980Z,98480.84
2018-07-07T18:20:20.950Z,98480.45
2018-07-07T18:22:49.733Z,98481.27
2018-07-07T18:25:18.494Z,98473.69
2018-07-07T18:27:47.186Z,98483.05
2018-07-07T18:30:16.214Z,98486.05
2018-07-07T18:32:44.974Z,98478.52
2018-07-07T18:35:13.691Z,98481.30
2018-07-07T18:37:42.569Z,98481.48
2018-07-07T18:40:11.209Z,98483.87
2018-07-07T18:42:39.904Z,98487.83
2018-07-07T18:45:09.488Z,98484.61
2018-07-07T18:47:38.430Z,98489.55
2018-07-07T18:50:07.240Z,98497.05
2018-07-07T18:52:35.914Z,98494.07
2018-07-07T18:55:04.864Z,98491.67
2018-07-07T18:57:33.671Z,98499.32
2018-07-07T19:00:02.664Z,98500.27
2018-07-07T19:02:31.738Z,98502.61
2018-07-07T19:05:00.461Z,98505.98
2018-07-07T19:07:29.438Z,98505.47
2018-07-07T19:09:58.274Z,98502.61
2018-07-07T19:12:27.044Z,98501.16
2018-07-07T19:14:59.916Z,98496.72
2018-07-07T19:17:28.809Z,98501.27
2018-07-07T19:19:57.388Z,98503.36
2018-07-07T19:22:31.423Z,98502.44
2018-07-07T19:25:05.727Z,98503.73
2018-07-07T19:27:34.457Z,98508.61
2018-07-07T19:30:03.800Z,98509.85
2018-07-07T19:32:38.020Z,98516.92
2018-07-07T19:35:12.070Z,98510.77
2018-07-07T19:37:41.725Z,98523.83
2018-07-07T19:40:10.871Z,98531.17
2018-07-07T19:42:40.768Z,98522.80
2018-07-07T19:45:09.908Z,98522.08
2018-07-07T19:47:39.510Z,98533.55
2018-07-07T19:50:10.005Z,98530.33
2018-07-07T19:52:39.124Z,98529.53
2018-07-07T19:55:08.228Z,98531.25
2018-07-07T19:57:37.033Z,98531.09
2018-07-07T20:00:06.105Z,98531.05
2018-07-07T20:02:35.153Z,98532.05
2018-07-07T20:05:03.946Z,98530.23
2018-07-07T20:07:32.962Z,98533.19
2018-07-07T20:10:01.790Z,98533.52
2018-07-07T20:12:30.764Z,98530.62
2018-07-07T20:14:59.637Z,98534.16
2018-07-07T20:17:39.731Z,98529.11
2018-07-07T20:20:44.532Z,98522.73
2018-07-07T20:23:17.705Z,98527.16
2018-07-07T20:25:51.823Z,98523.78
2018-07-07T20:28:25.897Z,98527.88
2018-07-07T20:30:58.445Z,98527.55
2018-07-07T20:33:28.275Z,98537.70
2018-07-07T20:39:30.018Z,98537.71
2018-07-07T20:41:58.778Z,98531.81
2018-07-07T20:44:27.889Z,98526.23
2018-07-07T20:46:57.216Z,98529.81
2018-07-07T20:49:27.319Z,98533.48
2018-07-07T20:51:56.146Z,98535.22
2018-07-07T20:54:25.372Z,98537.61
2018-07-07T20:56:54.555Z,98540.38
2018-07-07T20:59:23.676Z,98538.92
2018-07-07T21:01:52.571Z,98535.84
2018-07-07T21:04:21.806Z,98534.73
2018-07-07T21:06:51.464Z,98538.18
2018-07-07T21:09:20.480Z,98538.20
2018-07-07T21:11:49.640Z,98537.05
2018-07-07T21:15:22.704Z,98540.73
2018-07-07T21:17:52.259Z,98535.81
2018-07-07T21:20:21.796Z,98543.58
2018-07-07T21:22:50.925Z,98542.88
2018-07-07T21:25:20.395Z,98547.14
2018-07-07T21:27:49.061Z,98548.97
2018-07-07T21:30:29.836Z,98545.63
2018-07-07T21:32:58.670Z,98549.73
2018-07-07T21:35:27.949Z,98546.44
2018-07-07T21:37:57.019Z,98548.14
2018-07-07T21:40:25.916Z,98547.23
2018-07-07T21:42:54.925Z,98550.77
2018-07-07T21:45:23.868Z,98546.55
2018-07-07T21:47:53.176Z,98545.64
2018-07-07T21:50:23.206Z,98549.62
2018-07-07T21:52:51.929Z,98543.23
2018-07-07T21:55:21.816Z,98542.77
2018-07-07T21:57:55.857Z,98543.69
2018-07-07T22:00:30.154Z,98543.47
2018-07-07T22:03:03.899Z,98538.42
2018-07-07T22:05:39.060Z,98538.63
2018-07-07T22:08:13.965Z,98548.46
2018-07-07T22:10:42.860Z,98546.38
2018-07-07T22:13:12.496Z,98552.07
2018-07-07T22:15:41.509Z,98550.48
2018-07-07T22:18:10.429Z,98548.31
2018-07-07T22:20:39.321Z,98547.81
2018-07-07T22:23:08.129Z,98546.53
2018-07-07T22:25:37.691Z,98544.25
2018-07-07T22:28:07.244Z,98542.84
2018-07-07T22:30:36.226Z,98542.61
2018-07-07T22:33:10.744Z,98546.11
2018-07-07T22:35:44.612Z,98536.61
2018-07-07T22:38:18.865Z,98540.91
2018-07-07T22:40:47.789Z,98543.83
2018-07-07T22:43:16.435Z,98539.58
2018-07-07T22:45:45.251Z,98540.80
2018-07-07T22:48:13.953Z,98542.84
2018-07-07T22:50:42.740Z,98539.50
2018-07-07T22:53:11.560Z,98534.56
2018-07-07T22:55:40.548Z,98537.23
2018-07-07T22:58:09.154Z,98539.69
2018-07-07T23:00:38.152Z,98543.88
2018-07-07T23:03:06.884Z,98539.16
2018-07-07T23:05:35.719Z,98541.42
2018-07-07T23:08:04.469Z,98538.31
2018-07-07T23:10:33.340Z,98543.41
2018-07-07T23:13:02.410Z,98539.05
2018-07-07T23:15:31.991Z,98535.11
2018-07-07T23:18:01.105Z,98537.13
2018-07-07T23:20:30.297Z,98543.16
2018-07-07T23:22:59.836Z,98546.03
2018-07-07T23:25:28.516Z,98546.23
2018-07-07T23:27:57.301Z,98533.13
2018-07-07T23:30:27.130Z,98545.47
2018-07-07T23:32:55.999Z,98546.84
2018-07-07T23:35:24.965Z,98551.70
2018-07-07T23:37:53.745Z,98549.02
2018-07-07T23:40:22.651Z,98542.83
2018-07-07T23:42:51.387Z,98555.21
2018-07-07T23:45:20.472Z,98548.47
2018-07-07T23:47:49.415Z,98542.20
2018-07-07T23:50:18.250Z,98538.05
2018-07-07T23:52:47.165Z,98538.17
2018-07-07T23:55:16.265Z,98543.33
2018-07-07T23:57:45.114Z,98541.83
